In Rescue
 
Open Full Screen Window  High Contrast Mode
Wind Gusting 00 knots
07
July 24, 2024 5:32 PM CDT
Weather Information
Wind Direction
  130 °
Wind Speed
  07 kt (8 mph)
Wind Gust
  00 kt (0 mph)
Altimeter
30.22 in
Visibility
10 SM
Temperature
24° C
75° F
Dewpoint
13° C
55° F
Humidity
50%
1hr Rain Fall
00.00 in.
24hr Rain Fall
00.03 in.
Sky Condition
Scattered @ 4,900 ft
VFR

METAR KPWC 242232Z AUTO 13007KT 10SM SCT049 24/13 A3022 RMK AO2

FAA Disclaimer: The data displayed is for advisory purposes only and is not to be used for flight planning or operations.